createdAt,value
2019-05-15T00:08:09.155Z,8.70
2019-05-15T00:18:18.372Z,8.70
2019-05-15T00:28:24.312Z,8.70
2019-05-15T00:38:30.632Z,8.80
2019-05-15T00:48:39.488Z,8.80
2019-05-15T00:58:44.858Z,8.80
2019-05-15T01:08:50.742Z,8.80
2019-05-15T01:18:58.584Z,8.80
2019-05-15T01:29:04.812Z,8.80
2019-05-15T01:39:12.425Z,8.90
2019-05-15T01:49:19.031Z,9.00
2019-05-15T01:59:28.314Z,9.00
2019-05-15T02:09:33.739Z,9.10
2019-05-15T02:19:39.957Z,8.90
2019-05-15T02:29:46.329Z,8.90
2019-05-15T02:39:52.279Z,8.90
2019-05-15T02:49:59.312Z,8.90
2019-05-15T03:00:10.334Z,9.80
2019-05-15T03:10:19.788Z,8.60
2019-05-15T03:20:25.195Z,8.60
2019-05-15T03:30:35.132Z,8.70
2019-05-15T03:40:40.330Z,8.70
2019-05-15T03:50:48.890Z,8.60
2019-05-15T04:01:00.223Z,8.70
2019-05-15T04:11:09.129Z,8.70
2019-05-15T04:21:20.043Z,8.70
2019-05-15T04:31:25.761Z,8.80
2019-05-15T04:41:35.115Z,8.80
2019-05-15T04:51:42.451Z,8.90
2019-05-15T05:01:53.231Z,8.90
2019-05-15T05:11:58.265Z,9.00
2019-05-15T05:22:07.810Z,9.00
2019-05-15T05:32:31.297Z,9.10
2019-05-15T05:42:29.008Z,9.10
2019-05-15T05:52:35.459Z,9.10
2019-05-15T06:02:47.745Z,9.20
2019-05-15T06:12:50.540Z,9.30
2019-05-15T06:22:58.036Z,9.20
2019-05-15T06:33:13.243Z,9.40
2019-05-15T06:43:19.250Z,9.30
2019-05-15T06:53:28.871Z,9.40
2019-05-15T07:03:35.743Z,10.20
2019-05-15T07:13:42.985Z,9.70
2019-05-15T07:23:49.950Z,9.80
2019-05-15T07:33:56.250Z,10.10
2019-05-15T07:44:03.701Z,10.20
2019-05-15T07:54:12.345Z,10.40
2019-05-15T08:04:28.704Z,10.50
2019-05-15T08:14:28.900Z,10.70
2019-05-15T08:24:35.112Z,10.70
2019-05-15T08:34:43.408Z,10.80
2019-05-15T08:44:51.591Z,10.90
2019-05-15T08:54:59.283Z,11.00
2019-05-15T09:05:08.588Z,10.90
2019-05-15T09:15:18.477Z,10.90
2019-05-15T09:25:28.792Z,10.90
2019-05-15T09:35:36.791Z,11.10
2019-05-15T09:45:44.488Z,11.20
2019-05-15T09:55:53.072Z,11.40
2019-05-15T10:06:03.630Z,11.50
2019-05-15T10:16:11.265Z,11.60
2019-05-15T10:26:19.061Z,11.70
2019-05-15T10:36:24.197Z,11.70
2019-05-15T10:46:30.509Z,11.80
2019-05-15T10:56:41.161Z,11.80
2019-05-15T11:06:52.227Z,11.50
2019-05-15T11:16:59.482Z,11.10
2019-05-15T11:27:10.072Z,10.80
2019-05-15T11:37:18.957Z,10.80
2019-05-15T11:47:42.259Z,10.90
2019-05-15T11:57:55.632Z,10.90
2019-05-15T12:08:02.244Z,10.90
2019-05-15T12:18:09.042Z,11.10
2019-05-15T12:28:17.859Z,11.10
2019-05-15T12:38:39.731Z,11.10
2019-05-15T13:09:04.811Z,10.80
2019-05-15T13:19:11.636Z,10.80
2019-05-15T13:29:18.192Z,11.00
2019-05-15T13:39:24.923Z,11.10
2019-05-15T13:49:33.484Z,11.10
2019-05-15T13:59:40.629Z,11.10
2019-05-15T14:09:48.295Z,11.00
2019-05-15T14:19:57.934Z,11.00
2019-05-15T14:30:08.903Z,11.10
2019-05-15T14:40:20.086Z,11.00
2019-05-15T14:50:29.418Z,11.10
2019-05-15T15:00:41.282Z,11.10
2019-05-15T15:10:50.555Z,11.10
2019-05-15T15:20:58.051Z,11.20
2019-05-15T15:31:14.408Z,11.10
2019-05-15T15:41:20.201Z,11.10
2019-05-15T15:51:28.432Z,11.20
2019-05-15T16:01:38.928Z,11.20
2019-05-15T16:11:45.284Z,11.40
2019-05-15T16:21:53.202Z,11.40
2019-05-15T16:32:02.254Z,11.50
2019-05-15T16:42:08.279Z,11.60
2019-05-15T16:52:14.561Z,11.70
2019-05-15T17:02:21.101Z,11.90
2019-05-15T17:12:28.387Z,12.00
2019-05-15T17:22:37.932Z,12.20
2019-05-15T17:32:49.062Z,12.20
2019-05-15T17:42:54.034Z,12.40
2019-05-15T17:53:01.296Z,12.40
2019-05-15T18:03:08.704Z,12.50
2019-05-15T18:13:14.923Z,12.60
2019-05-15T18:23:23.517Z,12.70
2019-05-15T18:33:28.906Z,12.80
2019-05-15T18:43:37.756Z,12.80
2019-05-15T18:53:48.143Z,12.90
2019-05-15T19:03:54.534Z,12.90
2019-05-15T19:14:10.453Z,13.00
2019-05-15T19:24:18.489Z,13.10
2019-05-15T19:34:28.169Z,13.10
2019-05-15T19:44:38.001Z,13.00
2019-05-15T19:54:48.127Z,13.10
2019-05-15T20:04:55.699Z,13.20
2019-05-15T20:15:01.804Z,13.10
2019-05-15T20:25:09.111Z,13.20
2019-05-15T20:35:15.994Z,13.20
2019-05-15T20:45:23.424Z,13.20
2019-05-15T20:55:29.003Z,13.20
2019-05-15T21:05:34.803Z,13.30
2019-05-15T21:15:41.140Z,13.20
2019-05-15T21:25:52.059Z,13.20
2019-05-15T21:35:58.365Z,13.20
2019-05-15T21:46:04.634Z,13.20
2019-05-15T21:56:10.720Z,13.30
2019-05-15T22:06:18.544Z,13.30
2019-05-15T22:16:25.740Z,13.30
2019-05-15T22:26:32.703Z,13.30
2019-05-15T22:36:38.970Z,13.30
2019-05-15T22:46:45.698Z,13.30
2019-05-15T22:56:51.479Z,13.30
2019-05-15T23:06:57.681Z,13.40
2019-05-15T23:17:03.986Z,13.40
2019-05-15T23:27:10.308Z,13.40
2019-05-15T23:37:22.989Z,14.50
2019-05-15T23:47:29.495Z,13.50
2019-05-15T23:57:35.879Z,13.60
